createdAt,value
2023-09-12T00:00:00.826Z,12.07
2023-09-12T00:02:36.087Z,12.04
2023-09-12T00:05:08.689Z,12.02
2023-09-12T00:07:42.143Z,11.99
2023-09-12T00:10:14.322Z,11.98
2023-09-12T00:12:48.139Z,11.95
2023-09-12T00:15:21.095Z,11.93
2023-09-12T00:17:53.840Z,11.89
2023-09-12T00:20:26.336Z,11.88
2023-09-12T00:22:58.706Z,11.87
2023-09-12T00:25:31.043Z,11.87
2023-09-12T00:28:03.272Z,11.87
2023-09-12T00:30:35.680Z,11.91
2023-09-12T00:33:07.958Z,11.94
2023-09-12T00:35:42.154Z,11.96
2023-09-12T00:38:14.790Z,11.96
2023-09-12T00:40:47.052Z,11.93
2023-09-12T00:43:19.946Z,11.88
2023-09-12T00:45:52.597Z,11.84
2023-09-12T00:48:26.121Z,11.83
2023-09-12T00:50:59.436Z,11.80
2023-09-12T00:53:31.654Z,11.76
2023-09-12T00:56:04.681Z,11.76
2023-09-12T00:58:36.841Z,11.78
2023-09-12T01:01:09.887Z,11.78
2023-09-12T01:03:42.539Z,11.75
2023-09-12T01:06:16.959Z,11.73
2023-09-12T01:08:49.737Z,11.72
2023-09-12T01:11:23.144Z,11.69
2023-09-12T01:13:55.321Z,11.67
2023-09-12T01:16:27.766Z,11.66
2023-09-12T01:19:00.011Z,11.66
2023-09-12T01:22:06.491Z,11.63
2023-09-12T01:24:50.366Z,11.64
2023-09-12T01:27:30.645Z,11.66
2023-09-12T01:30:05.917Z,11.65
2023-09-12T01:32:39.861Z,11.62
2023-09-12T01:35:12.385Z,11.59
2023-09-12T01:37:44.566Z,11.56
2023-09-12T01:40:18.281Z,11.55
2023-09-12T01:42:52.702Z,11.52
2023-09-12T01:45:25.404Z,11.51
2023-09-12T01:47:58.717Z,11.49
2023-09-12T01:50:32.933Z,11.45
2023-09-12T01:53:05.183Z,11.42
2023-09-12T01:55:38.231Z,11.58
2023-09-12T01:58:10.995Z,11.43
2023-09-12T02:00:43.646Z,11.38
2023-09-12T02:03:16.204Z,11.35
2023-09-12T02:05:49.011Z,11.33
2023-09-12T02:08:21.278Z,11.34
2023-09-12T02:10:53.635Z,11.36
2023-09-12T02:13:26.488Z,11.37
2023-09-12T02:16:04.536Z,11.37
2023-09-12T02:18:37.097Z,11.37
2023-09-12T02:21:09.471Z,11.38
2023-09-12T02:23:42.049Z,11.37
2023-09-12T02:26:14.292Z,11.32
2023-09-12T02:28:48.089Z,11.33
2023-09-12T02:31:20.331Z,11.30
2023-09-12T02:33:52.737Z,11.28
2023-09-12T02:36:25.123Z,11.28
2023-09-12T02:38:57.597Z,11.28
2023-09-12T02:41:30.001Z,11.28
2023-09-12T02:44:02.419Z,11.30
2023-09-12T02:46:35.104Z,11.28
2023-09-12T02:49:07.387Z,11.27
2023-09-12T02:51:43.320Z,11.27
2023-09-12T02:54:15.869Z,11.25
2023-09-12T02:56:48.428Z,11.24
2023-09-12T02:59:20.946Z,11.25
2023-09-12T03:01:53.246Z,11.25
2023-09-12T03:04:29.876Z,11.24
2023-09-12T03:07:02.581Z,11.26
2023-09-12T03:09:35.235Z,11.28
2023-09-12T03:12:08.659Z,11.28
2023-09-12T03:14:42.525Z,11.30
2023-09-12T03:17:15.402Z,11.33
2023-09-12T03:19:48.241Z,11.36
2023-09-12T03:22:20.744Z,11.40
2023-09-12T03:24:53.041Z,11.51
2023-09-12T03:27:25.463Z,11.66
2023-09-12T03:29:58.388Z,11.81
2023-09-12T03:32:32.688Z,11.88
2023-09-12T03:35:04.967Z,11.93
2023-09-12T03:37:38.982Z,11.97
2023-09-12T03:40:15.302Z,12.01
2023-09-12T03:42:49.030Z,12.06
2023-09-12T03:45:22.848Z,12.12
2023-09-12T03:47:55.953Z,12.16
2023-09-12T03:50:29.739Z,12.21
2023-09-12T03:53:05.158Z,12.24
2023-09-12T03:55:38.064Z,12.29
2023-09-12T03:58:10.560Z,12.34
2023-09-12T04:00:43.423Z,12.41
2023-09-12T04:03:17.692Z,12.47
2023-09-12T04:05:50.383Z,12.53
2023-09-12T04:08:23.127Z,12.63
2023-09-12T04:10:55.422Z,12.72
2023-09-12T04:13:30.078Z,12.80
2023-09-12T04:16:02.409Z,12.88
2023-09-12T04:18:35.808Z,12.95
2023-09-12T04:21:08.784Z,13.04
2023-09-12T04:23:42.269Z,13.11
2023-09-12T04:26:15.068Z,13.19
2023-09-12T04:28:49.609Z,13.27
2023-09-12T04:31:22.277Z,13.36
2023-09-12T04:33:55.506Z,13.45
2023-09-12T04:36:28.939Z,13.54
2023-09-12T04:39:02.074Z,13.62
2023-09-12T04:41:35.281Z,13.70
2023-09-12T04:44:08.374Z,13.76
2023-09-12T04:46:44.384Z,13.81
2023-09-12T04:49:16.418Z,13.96
2023-09-12T04:51:49.741Z,14.05
2023-09-12T04:54:22.269Z,14.15
2023-09-12T04:56:56.375Z,14.25
2023-09-12T04:59:29.084Z,14.36
2023-09-12T05:02:02.769Z,14.47
2023-09-12T05:04:35.290Z,14.70
2023-09-12T05:07:08.246Z,14.92
2023-09-12T05:09:41.394Z,14.92
2023-09-12T05:12:15.347Z,15.14
2023-09-12T05:14:47.999Z,15.24
2023-09-12T05:17:20.781Z,15.31
2023-09-12T05:19:53.405Z,15.35
2023-09-12T05:22:26.613Z,15.39
2023-09-12T05:24:59.706Z,15.45
2023-09-12T05:27:33.259Z,15.48
2023-09-12T05:30:05.954Z,15.71
2023-09-12T05:32:40.765Z,15.62
2023-09-12T05:35:21.456Z,15.69
2023-09-12T05:37:48.054Z,15.75
2023-09-12T05:40:20.973Z,15.98
2023-09-12T05:42:54.827Z,16.00
2023-09-12T05:45:27.803Z,16.41
2023-09-12T05:48:01.036Z,17.05
2023-09-12T05:50:35.038Z,17.51
2023-09-12T05:53:10.215Z,18.15
2023-09-12T05:55:43.436Z,18.70
2023-09-12T05:58:17.050Z,19.24
2023-09-12T06:00:50.177Z,19.70
2023-09-12T06:03:24.073Z,19.97
2023-09-12T06:05:56.710Z,20.18
2023-09-12T06:08:29.770Z,20.50
2023-09-12T06:11:02.257Z,20.91
2023-09-12T06:13:36.912Z,21.13
2023-09-12T06:16:09.863Z,21.55
2023-09-12T06:18:42.498Z,21.66
2023-09-12T06:21:16.291Z,21.71
2023-09-12T06:23:50.337Z,21.76
2023-09-12T06:26:23.247Z,21.97
2023-09-12T06:28:56.223Z,22.07
2023-09-12T06:31:29.866Z,22.63
2023-09-12T06:34:02.859Z,23.51
2023-09-12T06:36:36.093Z,24.40
2023-09-12T06:39:09.954Z,25.40
2023-09-12T06:41:43.515Z,25.51
2023-09-12T06:44:16.324Z,25.43
2023-09-12T06:46:49.655Z,25.73
2023-09-12T06:49:22.277Z,25.93
2023-09-12T06:51:55.168Z,26.40
2023-09-12T06:54:28.060Z,26.24
2023-09-12T06:57:00.562Z,26.09
2023-09-12T06:59:33.469Z,25.80
2023-09-12T07:02:06.313Z,25.40
2023-09-12T07:04:40.200Z,24.84
2023-09-12T07:07:13.199Z,23.79
2023-09-12T07:09:46.301Z,23.79
2023-09-12T07:12:19.729Z,23.08
2023-09-12T07:14:53.321Z,22.37
2023-09-12T07:17:26.168Z,21.82
2023-09-12T07:20:00.968Z,21.31
2023-09-12T07:22:35.590Z,20.88
2023-09-12T07:25:11.039Z,20.61
2023-09-12T07:27:44.791Z,20.43
2023-09-12T07:30:19.919Z,20.23
2023-09-12T07:32:53.242Z,20.09
2023-09-12T07:35:27.159Z,19.93
2023-09-12T07:38:00.220Z,19.75
2023-09-12T07:40:32.566Z,19.63
2023-09-12T07:43:05.908Z,19.52
2023-09-12T07:45:39.786Z,19.49
2023-09-12T07:48:16.240Z,19.44
2023-09-12T07:50:50.147Z,19.43
2023-09-12T07:53:24.347Z,19.42
2023-09-12T07:55:59.664Z,19.38
2023-09-12T07:58:32.754Z,19.37
2023-09-12T08:01:12.015Z,19.33
2023-09-12T08:03:46.006Z,19.34
2023-09-12T08:06:20.106Z,19.35
2023-09-12T08:08:53.513Z,19.55
2023-09-12T08:11:27.802Z,19.40
2023-09-12T08:14:01.053Z,19.41
2023-09-12T08:16:33.918Z,19.45
2023-09-12T08:19:06.484Z,19.46
2023-09-12T08:21:39.924Z,19.48
2023-09-12T08:24:14.308Z,19.56
2023-09-12T08:26:49.128Z,19.52
2023-09-12T08:29:24.184Z,19.57
2023-09-12T08:31:57.866Z,19.59
2023-09-12T08:34:30.633Z,19.62
2023-09-12T08:37:02.899Z,19.84
2023-09-12T08:39:46.578Z,19.72
2023-09-12T08:42:19.579Z,19.75
2023-09-12T08:44:54.258Z,19.81
2023-09-12T08:47:28.749Z,19.86
2023-09-12T08:50:02.003Z,19.86
2023-09-12T08:52:35.063Z,19.86
2023-09-12T08:55:09.243Z,19.85
2023-09-12T08:57:44.438Z,19.87
2023-09-12T09:00:34.421Z,19.90
2023-09-12T09:03:09.824Z,19.90
2023-09-12T09:05:46.329Z,19.89
2023-09-12T09:08:21.898Z,19.91
2023-09-12T09:10:59.712Z,19.89
2023-09-12T09:13:32.868Z,19.87
2023-09-12T09:16:16.026Z,19.86
2023-09-12T09:19:00.658Z,19.90
2023-09-12T09:21:34.864Z,19.93
2023-09-12T09:24:12.608Z,20.14
2023-09-12T09:26:49.272Z,20.04
2023-09-12T09:29:23.333Z,20.04
2023-09-12T09:31:56.426Z,20.04
2023-09-12T09:34:30.924Z,20.03
2023-09-12T09:37:05.367Z,20.04
2023-09-12T09:39:37.829Z,20.07
2023-09-12T09:42:13.224Z,20.25
2023-09-12T09:44:49.607Z,20.15
2023-09-12T09:47:22.767Z,20.16
2023-09-12T09:49:55.519Z,20.20
2023-09-12T09:52:31.549Z,20.26
2023-09-12T09:55:06.869Z,20.30
2023-09-12T09:57:43.761Z,20.32
2023-09-12T10:00:19.866Z,20.33
2023-09-12T10:02:54.033Z,20.34
2023-09-12T10:05:28.965Z,20.38
2023-09-12T10:08:04.266Z,20.39
2023-09-12T10:10:38.161Z,20.40
2023-09-12T10:13:12.583Z,20.48
2023-09-12T10:15:47.351Z,20.48
2023-09-12T10:21:10.726Z,20.65
2023-09-12T10:23:51.174Z,20.70
2023-09-12T10:26:24.947Z,20.72
2023-09-12T10:28:57.565Z,20.72
2023-09-12T10:31:31.534Z,20.80
2023-09-12T10:34:05.778Z,20.85
2023-09-12T10:36:41.976Z,21.01
2023-09-12T10:39:17.652Z,21.19
2023-09-12T10:41:54.265Z,21.25
2023-09-12T10:44:27.947Z,21.35
2023-09-12T10:47:01.239Z,21.39
2023-09-12T10:49:34.015Z,21.41
2023-09-12T10:52:08.475Z,21.47
2023-09-12T10:54:42.664Z,21.50
2023-09-12T10:57:16.029Z,21.54
2023-09-12T11:00:08.021Z,21.65
2023-09-12T11:02:45.969Z,21.73
2023-09-12T11:05:34.928Z,21.83
2023-09-12T11:08:08.072Z,21.88
2023-09-12T11:10:42.085Z,21.92
2023-09-12T11:13:21.229Z,21.89
2023-09-12T11:16:13.864Z,21.88
2023-09-12T11:19:24.561Z,21.84
2023-09-12T11:21:57.468Z,21.82
2023-09-12T11:24:30.975Z,21.77
2023-09-12T11:27:07.928Z,21.65
2023-09-12T11:29:43.682Z,21.58
2023-09-12T11:32:29.123Z,21.53
2023-09-12T11:35:04.328Z,21.54
2023-09-12T11:37:39.709Z,21.59
2023-09-12T11:40:17.581Z,21.68
2023-09-12T11:42:51.469Z,21.88
2023-09-12T11:45:25.451Z,21.99
2023-09-12T11:47:59.117Z,22.12
2023-09-12T11:50:42.503Z,22.26
2023-09-12T11:53:15.482Z,22.41
2023-09-12T11:55:51.256Z,22.58
2023-09-12T11:58:25.352Z,22.68
2023-09-12T12:01:00.542Z,22.80
2023-09-12T12:03:33.432Z,22.87
2023-09-12T12:06:08.174Z,22.94
2023-09-12T12:08:41.392Z,22.97
2023-09-12T12:11:14.172Z,23.10
2023-09-12T12:13:47.711Z,23.13
2023-09-12T12:16:21.009Z,23.22
2023-09-12T12:18:58.536Z,23.42
2023-09-12T12:21:33.492Z,23.56
2023-09-12T12:24:09.013Z,23.81
2023-09-12T12:26:46.717Z,24.20
2023-09-12T12:29:20.541Z,24.69
2023-09-12T12:31:54.130Z,25.79
2023-09-12T12:34:54.830Z,27.59
2023-09-12T12:37:01.726Z,29.49
2023-09-12T12:39:34.926Z,31.26
2023-09-12T12:42:09.792Z,33.26
2023-09-12T12:44:42.603Z,34.53
2023-09-12T12:47:15.439Z,35.59
2023-09-12T12:49:52.596Z,36.61
2023-09-12T12:52:28.257Z,37.47
2023-09-12T12:55:08.134Z,38.41
2023-09-12T12:57:42.150Z,39.38
2023-09-12T13:00:17.226Z,40.04
2023-09-12T13:02:49.675Z,38.78
2023-09-12T13:05:25.657Z,37.08
2023-09-12T13:07:59.823Z,37.11
2023-09-12T13:10:32.338Z,37.75
2023-09-12T13:13:05.740Z,39.43
2023-09-12T13:15:38.321Z,39.57
2023-09-12T13:18:11.038Z,40.44
2023-09-12T13:20:43.912Z,41.07
2023-09-12T13:23:16.220Z,41.65
2023-09-12T13:25:49.106Z,41.96
2023-09-12T13:28:21.774Z,41.66
2023-09-12T13:30:55.977Z,40.15
2023-09-12T13:33:27.655Z,37.77
2023-09-12T13:36:01.132Z,37.30
2023-09-12T13:38:33.729Z,33.38
2023-09-12T13:41:11.238Z,31.50
2023-09-12T13:43:46.783Z,29.98
2023-09-12T13:46:23.744Z,29.94
2023-09-12T13:48:59.072Z,31.48
2023-09-12T13:51:35.276Z,32.87
2023-09-12T13:54:10.255Z,33.13
2023-09-12T13:56:46.221Z,32.15
2023-09-12T13:59:19.974Z,30.84
2023-09-12T14:01:52.741Z,29.61
2023-09-12T14:04:25.693Z,28.48
2023-09-12T14:06:59.070Z,27.83
2023-09-12T14:09:32.398Z,27.37
2023-09-12T14:12:11.192Z,27.06
2023-09-12T14:14:39.918Z,26.77
2023-09-12T14:17:13.681Z,27.80
2023-09-12T14:19:48.471Z,29.05
2023-09-12T14:22:23.753Z,29.65
2023-09-12T14:24:58.787Z,29.05
2023-09-12T14:27:34.816Z,28.19
2023-09-12T14:30:08.685Z,27.23
2023-09-12T14:32:42.246Z,26.34
2023-09-12T14:35:16.646Z,25.57
2023-09-12T14:37:50.908Z,24.88
2023-09-12T14:40:23.329Z,24.32
2023-09-12T14:42:56.332Z,24.40
2023-09-12T14:45:31.216Z,23.51
2023-09-12T14:48:04.634Z,23.14
2023-09-12T14:50:42.781Z,22.77
2023-09-12T14:53:11.919Z,22.48
2023-09-12T14:55:45.719Z,22.22
2023-09-12T14:58:20.120Z,22.00
2023-09-12T15:00:53.214Z,21.80
2023-09-12T15:03:26.171Z,21.63
2023-09-12T15:05:59.238Z,21.47
2023-09-12T15:08:33.428Z,21.28
2023-09-12T15:11:07.181Z,21.13
2023-09-12T15:13:42.870Z,20.96
2023-09-12T15:16:15.699Z,20.81
2023-09-12T15:18:50.692Z,20.63
2023-09-12T15:21:24.410Z,20.46
2023-09-12T15:23:57.930Z,20.32
2023-09-12T15:26:40.919Z,20.15
2023-09-12T15:29:13.242Z,20.26
2023-09-12T15:31:45.794Z,19.89
2023-09-12T15:34:18.874Z,19.78
2023-09-12T15:36:51.878Z,19.67
2023-09-12T15:39:24.403Z,19.52
2023-09-12T15:41:57.000Z,19.43
2023-09-12T15:44:30.393Z,19.32
2023-09-12T15:47:15.770Z,19.21
2023-09-12T15:49:37.739Z,19.08
2023-09-12T15:52:10.550Z,18.98
2023-09-12T15:54:43.457Z,18.85
2023-09-12T15:57:16.816Z,18.78
2023-09-12T15:59:50.015Z,18.69
2023-09-12T16:02:22.298Z,18.57
2023-09-12T16:04:55.178Z,18.43
2023-09-12T16:07:28.306Z,18.33
2023-09-12T16:10:01.481Z,18.22
2023-09-12T16:12:36.019Z,18.14
2023-09-12T16:15:10.645Z,18.03
2023-09-12T16:17:46.108Z,17.92
2023-09-12T16:20:19.858Z,17.84
2023-09-12T16:22:52.861Z,17.80
2023-09-12T16:25:25.399Z,17.75
2023-09-12T16:27:58.364Z,17.76
2023-09-12T16:30:32.661Z,17.74
2023-09-12T16:33:06.170Z,17.70
2023-09-12T16:35:39.403Z,17.66
2023-09-12T16:38:12.265Z,17.63
2023-09-12T16:40:46.842Z,17.62
2023-09-12T16:43:18.838Z,17.71
2023-09-12T16:45:52.021Z,17.57
2023-09-12T16:48:24.551Z,17.50
2023-09-12T16:50:57.462Z,17.46
2023-09-12T16:53:29.694Z,17.47
2023-09-12T16:56:02.648Z,17.38
2023-09-12T16:58:35.341Z,17.34
2023-09-12T17:01:08.166Z,17.36
2023-09-12T17:03:41.191Z,17.36
2023-09-12T17:06:14.256Z,17.43
2023-09-12T17:08:48.196Z,17.43
2023-09-12T17:11:22.181Z,17.39
2023-09-12T17:13:54.939Z,17.30
2023-09-12T17:16:27.676Z,17.24
2023-09-12T17:19:00.350Z,17.18
2023-09-12T17:21:33.223Z,17.15
2023-09-12T17:24:05.543Z,17.12
2023-09-12T17:26:38.812Z,17.13
2023-09-12T17:29:12.016Z,17.10
2023-09-12T17:31:44.330Z,17.04
2023-09-12T17:34:17.579Z,17.01
2023-09-12T17:36:50.306Z,16.96
2023-09-12T17:39:23.533Z,16.91
2023-09-12T17:41:57.708Z,16.83
2023-09-12T17:44:30.971Z,16.78
2023-09-12T17:47:04.768Z,16.71
2023-09-12T17:49:37.935Z,16.68
2023-09-12T17:52:11.229Z,16.61
2023-09-12T17:54:45.336Z,16.61
2023-09-12T17:57:18.450Z,16.55
2023-09-12T17:59:51.068Z,16.55
2023-09-12T18:02:23.640Z,16.56
2023-09-12T18:04:56.516Z,16.55
2023-09-12T18:07:29.427Z,16.54
2023-09-12T18:10:02.699Z,16.52
2023-09-12T18:12:36.740Z,16.52
2023-09-12T18:15:11.588Z,16.47
2023-09-12T18:17:44.639Z,16.45
2023-09-12T18:20:19.196Z,16.38
2023-09-12T18:22:56.219Z,16.35
2023-09-12T18:25:31.338Z,16.32
2023-09-12T18:28:04.286Z,16.29
2023-09-12T18:30:37.690Z,16.27
2023-09-12T18:33:11.327Z,16.23
2023-09-12T18:35:44.333Z,16.15
2023-09-12T18:38:17.650Z,16.07
2023-09-12T18:40:50.336Z,16.00
2023-09-12T18:43:23.652Z,15.98
2023-09-12T18:45:58.369Z,16.00
2023-09-12T18:48:32.441Z,16.02
2023-09-12T18:51:08.045Z,16.05
2023-09-12T18:53:41.452Z,16.03
2023-09-12T18:56:14.436Z,16.04
2023-09-12T18:58:46.976Z,16.04
2023-09-12T19:01:20.104Z,15.98
2023-09-12T19:03:54.082Z,15.97
2023-09-12T19:06:28.165Z,15.96
2023-09-12T19:09:00.761Z,15.93
2023-09-12T19:11:33.360Z,15.93
2023-09-12T19:14:07.356Z,15.88
2023-09-12T19:16:40.306Z,15.82
2023-09-12T19:19:13.018Z,15.77
2023-09-12T19:21:45.702Z,15.70
2023-09-12T19:24:18.002Z,15.68
2023-09-12T19:26:50.448Z,15.64
2023-09-12T19:29:23.115Z,15.60
2023-09-12T19:31:55.530Z,15.57
2023-09-12T19:34:27.913Z,15.59
2023-09-12T19:37:00.683Z,15.54
2023-09-12T19:39:33.473Z,15.56
2023-09-12T19:42:06.731Z,15.57
2023-09-12T19:44:40.865Z,15.51
2023-09-12T19:47:13.229Z,15.51
2023-09-12T19:49:45.922Z,15.49
2023-09-12T19:52:20.041Z,15.42
2023-09-12T19:54:52.792Z,15.38
2023-09-12T19:57:26.525Z,15.30
2023-09-12T19:59:59.215Z,15.26
2023-09-12T20:02:33.301Z,15.23
2023-09-12T20:05:06.259Z,15.22
2023-09-12T20:07:38.694Z,15.20
2023-09-12T20:10:11.655Z,15.21
2023-09-12T20:12:43.973Z,15.18
2023-09-12T20:15:16.858Z,15.12
2023-09-12T20:17:53.170Z,15.09
2023-09-12T20:20:25.806Z,15.08
2023-09-12T20:22:58.293Z,15.01
2023-09-12T20:25:32.336Z,14.98
2023-09-12T20:28:04.740Z,14.97
2023-09-12T20:30:37.688Z,14.97
2023-09-12T20:33:10.158Z,14.95
2023-09-12T20:35:42.689Z,14.91
2023-09-12T20:38:14.948Z,14.90
2023-09-12T20:40:47.317Z,14.91
2023-09-12T20:43:19.550Z,14.92
2023-09-12T20:45:54.469Z,14.94
2023-09-12T20:48:26.965Z,14.99
2023-09-12T20:50:59.200Z,15.02
2023-09-12T20:53:31.354Z,15.04
2023-09-12T20:56:04.006Z,15.08
2023-09-12T20:58:37.783Z,15.08
2023-09-12T21:01:10.967Z,15.06
2023-09-12T21:03:44.713Z,15.06
2023-09-12T21:06:17.848Z,15.06
2023-09-12T21:08:52.204Z,15.03
2023-09-12T21:11:24.504Z,14.96
2023-09-12T21:13:56.921Z,14.92
2023-09-12T21:16:29.359Z,14.87
2023-09-12T21:19:01.710Z,14.85
2023-09-12T21:21:34.820Z,14.82
2023-09-12T21:24:07.303Z,14.80
2023-09-12T21:26:39.523Z,14.83
2023-09-12T21:29:12.473Z,14.87
2023-09-12T21:31:44.714Z,14.90
2023-09-12T21:34:17.071Z,14.91
2023-09-12T21:36:49.907Z,14.92
2023-09-12T21:39:22.423Z,14.92
2023-09-12T21:41:56.124Z,14.90
2023-09-12T21:44:28.742Z,14.86
2023-09-12T21:47:01.265Z,14.81
2023-09-12T21:49:33.930Z,14.78
2023-09-12T21:52:06.831Z,14.54
2023-09-12T21:54:40.684Z,14.54
2023-09-12T21:57:14.576Z,14.59
2023-09-12T21:59:47.017Z,14.54
2023-09-12T22:02:19.936Z,14.49
2023-09-12T22:04:52.469Z,14.42
2023-09-12T22:07:24.826Z,14.40
2023-09-12T22:09:57.209Z,14.31
2023-09-12T22:12:29.560Z,14.30
2023-09-12T22:15:01.825Z,14.27
2023-09-12T22:17:35.806Z,14.23
2023-09-12T22:20:10.459Z,14.24
2023-09-12T22:22:44.036Z,14.16
2023-09-12T22:25:16.954Z,14.22
2023-09-12T22:27:49.320Z,14.19
2023-09-12T22:30:21.715Z,14.16
2023-09-12T22:32:54.488Z,14.13
2023-09-12T22:35:27.056Z,14.08
2023-09-12T22:37:59.487Z,14.05
2023-09-12T22:40:31.870Z,13.99
2023-09-12T22:43:04.453Z,13.94
2023-09-12T22:45:37.211Z,13.92
2023-09-12T22:48:09.587Z,13.88
2023-09-12T22:50:43.794Z,13.85
2023-09-12T22:53:16.562Z,13.82
2023-09-12T22:55:48.798Z,13.82
2023-09-12T22:58:21.415Z,13.81
2023-09-12T23:00:54.082Z,13.79
2023-09-12T23:03:26.607Z,13.74
2023-09-12T23:06:00.256Z,13.57
2023-09-12T23:08:32.601Z,13.62
2023-09-12T23:11:05.001Z,13.62
2023-09-12T23:13:37.356Z,13.58
2023-09-12T23:16:09.727Z,13.54
2023-09-12T23:18:42.260Z,13.50
2023-09-12T23:21:14.679Z,13.29
2023-09-12T23:23:47.036Z,13.38
2023-09-12T23:26:20.106Z,13.38
2023-09-12T23:28:52.638Z,13.35
2023-09-12T23:31:25.278Z,13.31
2023-09-12T23:33:57.627Z,13.29
2023-09-12T23:36:30.059Z,13.12
2023-09-12T23:39:03.780Z,13.19
2023-09-12T23:41:36.614Z,13.19
2023-09-12T23:44:08.994Z,13.15
2023-09-12T23:46:41.323Z,13.11
2023-09-12T23:49:13.862Z,13.06
2023-09-12T23:51:46.179Z,13.05
2023-09-12T23:54:18.714Z,12.88
2023-09-12T23:56:50.981Z,12.88
2023-09-12T23:59:23.943Z,12.98
